Cape Hatteras National Seash, North Carolina
Current Conditions -  °F | °C
As of 9:35 PM on Saturday 20 Dec 2014 (Local Time) from KMQI Reporting Station
Clear Clear  
Wind Chill:   Ceiling: Unl
Heat Index:   Visibility: 10mi
Dew Point:   Wind: 3mph
Humidity: 80%   Direction: 360°N
Pressure: 30.29"   Gusts: NA
Location:  35.8834°N, 75.6616°W
Report Text: KMQI 210235Z AUTO 36003KT 10SM CLR 04/01 A3029 RMK AO2 T00370006
Loading
Personal Weather Stations






























Interactive Weather Map New forecast layout! Learn more

10-Day Weather Forecast

Advertisements
Track Severe Weather on mobile